PDT,Max TemperatureF,Mean TemperatureF,Min TemperatureF,Max Dew PointF,MeanDew PointF,Min DewpointF,Max Humidity, Mean Humidity, Min Humidity, Max Sea Level PressureIn, Mean Sea Level PressureIn, Min Sea Level PressureIn, Max VisibilityMiles, Mean VisibilityMiles, Min VisibilityMiles, Max Wind SpeedMPH, Mean Wind SpeedMPH, Max Gust SpeedMPH,PrecipitationIn, CloudCover, Events, WindDirDegrees
2013-6-1,64,56,48,53,49,46,93,75,56,30.26,30.17,30.09,10,10,7,12,4,15,0.00,8,,259
2013-6-2,64,59,54,54,52,47,100,84,67,30.14,30.11,30.08,10,9,3,16,10,20,0.02,7,Rain,311
2013-6-3,62,58,53,52,48,47,83,74,64,30.15,30.14,30.12,10,10,10,18,9,22,0.00,5,,320
2013-6-4,72,58,44,57,50,43,100,79,57,30.13,30.10,30.05,10,10,9,23,9,29,0.00,3,,333
2013-6-5,64,57,50,57,53,48,93,86,78,30.15,30.11,30.07,10,10,3,20,10,23,0.00,6,,303
2013-6-6,65,59,53,55,52,49,93,80,67,30.12,30.09,30.06,10,10,9,20,9,23,0.00,4,,300
2013-6-7,64,56,47,55,51,46,100,86,72,30.21,30.16,30.11,10,10,6,20,6,23,0.00,6,,281
2013-6-8,64,56,47,50,48,46,100,80,60,30.21,30.19,30.16,10,10,10,22,9,26,0.00,4,,327
2013-6-9,64,59,54,49,47,44,83,72,60,30.16,30.13,30.09,10,10,10,23,13,28,0.00,4,,331
2013-6-10,63,57,51,47,46,45,83,69,55,30.09,30.02,29.99,10,10,10,25,12,28,0.00,4,,318
2013-6-11,62,57,51,50,48,46,89,76,62,30.16,30.09,30.01,10,10,5,18,9,23,0.01,6,Rain,240
2013-6-12,61,55,48,52,49,46,93,80,67,30.19,30.17,30.14,10,9,4,16,8,22,0.01,8,Rain,224
2013-6-13,63,57,51,54,51,48,100,80,60,30.30,30.21,30.16,10,9,0,16,8,54,0.29,7,Fog-Rain,250
2013-6-14,64,57,50,53,50,46,93,77,60,30.29,30.20,30.01,10,10,10,13,4,15,0.00,6,,308
2013-6-15,67,57,46,55,51,45,100,82,63,30.05,29.97,29.94,10,10,10,15,6,21,0.00,3,,220
2013-6-16,66,61,56,55,51,48,83,72,60,30.12,30.10,30.06,10,10,10,13,5,17,0.00,6,,236
2013-6-17,66,60,54,55,54,51,93,78,63,30.11,30.03,29.98,10,9,4,21,7,28,0.11,6,Rain,195
2013-6-18,63,57,50,54,52,50,100,86,72,30.00,29.97,29.96,10,10,5,22,7,30,0.02,5,Rain,180
2013-6-19,64,57,49,54,51,48,93,80,67,30.07,30.01,29.95,10,10,10,20,9,26,0.11,6,,202
2013-6-20,64,58,52,52,50,48,96,78,60,30.15,30.09,30.04,10,10,10,15,8,29,0.16,6,Rain,269
2013-6-21,66,60,54,55,52,50,93,78,63,30.18,30.16,30.14,10,10,2,14,5,21,0.04,7,Rain,299
2013-6-22,72,61,50,56,52,48,100,74,47,30.12,30.00,29.86,10,10,4,12,4,15,0.00,4,Rain,222
2013-6-23,64,61,58,61,58,55,97,94,90,29.85,29.72,29.62,10,8,2,12,4,16,0.24,8,Rain,211
2013-6-24,64,60,55,57,54,50,100,85,69,29.70,29.67,29.63,10,7,1,21,10,25,0.27,8,Rain,191
2013-6-25,66,62,57,57,54,51,93,80,67,29.83,29.72,29.65,10,9,4,24,10,36,0.04,7,Rain,167
2013-6-26,64,61,57,59,57,55,100,92,84,30.04,29.92,29.83,10,8,1,20,8,26,0.42,8,Rain,152
2013-6-27,67,64,60,61,60,59,100,91,81,30.19,30.12,30.00,10,9,2,20,7,26,0.21,7,Rain,208
2013-6-28,72,65,58,63,60,57,100,84,68,30.16,30.12,30.09,10,6,0,15,4,18,0.00,4,Fog,246
2013-6-29,76,67,58,61,58,55,100,81,61,30.12,30.08,30.01,10,10,10,12,5,16,0.00,0,,245
2013-6-30,76,66,56,64,59,55,100,84,68,30.00,29.96,29.93,10,10,10,15,5,17,0.00,2,,243